Terminal Aerodrome Forecast
Issued by NWS

Home | Current Version | Previous Version | Text Only | Print | Product List | Glossary On
Versions: 1 2 3 4 5 6 7 8 9 10 11 12 13 14 15
000
FTUS45 KVEF 301138
TAFVGT
TAF
KVGT 301138Z 3012/0112 VRB05KT P6SM SCT120 BKN150 OVC200
     FM301500 14007KT P6SM SCT120 SCT150
     FM010200 24008KT P6SM SCT120 BKN220=

USA.gov is the U.S. government's official web portal to all federal, state and local government web resources and services.